createdAt,value
2019-02-07T00:00:43.689Z,75.81
2019-02-07T00:01:50.300Z,76.10
2019-02-07T00:02:54.691Z,76.01
2019-02-07T00:04:00.889Z,75.53
2019-02-07T00:05:05.738Z,75.62
2019-02-07T00:06:11.269Z,76.10
2019-02-07T00:07:16.710Z,75.81
2019-02-07T00:08:23.233Z,76.01
2019-02-07T00:09:27.737Z,75.43
2019-02-07T00:10:33.252Z,75.81
2019-02-07T00:11:38.749Z,75.81
2019-02-07T00:12:44.333Z,76.01
2019-02-07T00:13:49.755Z,75.72
2019-02-07T00:14:56.254Z,75.53
2019-02-07T00:16:00.751Z,74.77
2019-02-07T00:17:06.325Z,75.34
2019-02-07T00:18:11.872Z,75.24
2019-02-07T00:19:17.275Z,75.24
2019-02-07T00:20:22.821Z,74.67
2019-02-07T00:21:29.323Z,74.87
2019-02-07T00:22:34.513Z,74.87
2019-02-07T00:23:39.345Z,74.39
2019-02-07T00:24:44.849Z,74.29
2019-02-07T00:25:51.209Z,74.48
2019-02-07T00:26:55.875Z,75.05
2019-02-07T00:28:02.383Z,74.67
2019-02-07T00:29:06.875Z,74.87
2019-02-07T00:30:12.392Z,74.67
2019-02-07T00:31:17.875Z,74.58
2019-02-07T00:32:23.401Z,74.77
2019-02-07T00:33:28.893Z,74.67
2019-02-07T00:34:35.444Z,74.58
2019-02-07T00:35:39.926Z,74.48
2019-02-07T00:36:45.434Z,73.91
2019-02-07T00:37:50.909Z,73.25
2019-02-07T00:38:56.445Z,74.01
2019-02-07T00:40:01.952Z,73.63
2019-02-07T00:41:08.469Z,73.91
2019-02-07T00:42:12.963Z,73.53
2019-02-07T00:43:18.469Z,73.34
2019-02-07T00:44:23.977Z,73.34
2019-02-07T00:45:29.506Z,73.06
2019-02-07T00:46:35.007Z,73.06
2019-02-07T00:47:41.510Z,73.25
2019-02-07T00:48:46.019Z,73.53
2019-02-07T00:49:51.499Z,73.44
2019-02-07T00:50:57.034Z,73.06
2019-02-07T00:52:02.546Z,73.25
2019-02-07T00:53:08.054Z,73.15
2019-02-07T00:54:14.567Z,72.96
2019-02-07T00:55:19.107Z,73.53
2019-02-07T00:56:24.588Z,72.96
2019-02-07T00:57:30.069Z,73.15
2019-02-07T00:58:35.580Z,72.96
2019-02-07T00:59:41.093Z,73.25
2019-02-07T01:00:47.630Z,72.67
2019-02-07T01:01:52.109Z,72.77
2019-02-07T01:02:57.608Z,73.25
2019-02-07T01:04:03.145Z,73.25
2019-02-07T01:05:08.622Z,73.06
2019-02-07T01:06:14.138Z,72.96
2019-02-07T01:07:20.646Z,73.15
2019-02-07T01:08:25.144Z,73.34
2019-02-07T01:09:30.678Z,73.53
2019-02-07T01:10:36.220Z,73.06
2019-02-07T01:11:41.686Z,73.06
2019-02-07T01:12:47.178Z,72.96
2019-02-07T01:13:53.669Z,73.06
2019-02-07T01:15:02.011Z,73.63
2019-02-07T01:16:03.716Z,73.53
2019-02-07T01:17:09.203Z,73.53
2019-02-07T01:18:14.706Z,74.20
2019-02-07T01:19:20.236Z,74.58
2019-02-07T01:20:26.737Z,74.58
2019-02-07T01:21:31.225Z,74.77
2019-02-07T01:22:36.695Z,75.34
2019-02-07T01:23:42.228Z,74.87
2019-02-07T01:24:47.757Z,75.05
2019-02-07T01:25:53.264Z,75.15
2019-02-07T01:26:59.771Z,75.34
2019-02-07T01:28:04.284Z,76.01
2019-02-07T01:29:09.794Z,75.81
2019-02-07T01:30:15.312Z,76.39
2019-02-07T01:31:20.802Z,76.86
2019-02-07T01:32:26.320Z,76.76
2019-02-07T01:33:32.843Z,77.24
2019-02-07T01:34:37.342Z,77.81
2019-02-07T01:35:42.867Z,78.10
2019-02-07T01:36:48.435Z,78.29
2019-02-07T01:37:53.823Z,78.38
2019-02-07T01:38:59.382Z,79.05
2019-02-07T01:40:05.877Z,79.39
2019-02-07T01:41:10.373Z,78.96
2019-02-07T01:42:15.906Z,79.30
2019-02-07T01:43:21.386Z,79.62
2019-02-07T01:44:26.898Z,79.96
2019-02-07T01:45:32.419Z,80.44
2019-02-07T01:46:38.937Z,80.72
2019-02-07T01:47:43.423Z,80.91
2019-02-07T01:48:48.948Z,81.58
2019-02-07T01:49:54.469Z,82.05
2019-02-07T01:50:59.954Z,82.05
2019-02-07T01:52:05.466Z,83.58
2019-02-07T01:53:11.982Z,82.71
2019-02-07T01:54:16.490Z,83.10
2019-02-07T01:55:22.004Z,83.86
2019-02-07T01:56:27.495Z,83.95
2019-02-07T01:57:32.989Z,83.95
2019-02-07T01:58:38.484Z,84.24
2019-02-07T01:59:45.035Z,84.14
2019-02-07T02:00:49.517Z,84.33
2019-02-07T02:01:55.017Z,84.24
2019-02-07T02:03:00.527Z,84.62
2019-02-07T02:04:06.043Z,84.33
2019-02-07T02:05:11.558Z,84.81
2019-02-07T02:06:18.021Z,85.28
2019-02-07T02:07:22.556Z,84.81
2019-02-07T02:08:28.063Z,84.72
2019-02-07T02:09:33.576Z,85.66
2019-02-07T02:10:39.113Z,85.28
2019-02-07T02:11:44.610Z,86.33
2019-02-07T02:12:51.073Z,86.14
2019-02-07T02:13:55.576Z,86.24
2019-02-07T02:15:01.087Z,86.90
2019-02-07T02:16:06.604Z,86.71
2019-02-07T02:17:12.140Z,86.80
2019-02-07T02:18:17.616Z,87.09
2019-02-07T02:19:24.149Z,87.47
2019-02-07T02:20:28.622Z,87.52
2019-02-07T02:21:34.183Z,87.34
2019-02-07T02:22:39.664Z,87.81
2019-02-07T02:23:45.195Z,87.95
2019-02-07T02:24:50.679Z,88.38
2019-02-07T02:25:57.168Z,88.28
2019-02-07T02:27:01.704Z,88.19
2019-02-07T02:28:07.212Z,88.38
2019-02-07T02:29:12.701Z,88.85
2019-02-07T02:30:18.217Z,89.04
2019-02-07T02:31:23.732Z,89.52
2019-02-07T02:32:30.264Z,89.23
2019-02-07T02:33:34.759Z,89.61
2019-02-07T02:34:40.265Z,89.71
2019-02-07T02:35:45.756Z,90.19
2019-02-07T02:36:51.260Z,90.00
2019-02-07T02:37:56.771Z,90.37
2019-02-07T02:39:03.290Z,90.28
2019-02-07T02:40:07.770Z,90.37
2019-02-07T02:41:13.300Z,90.09
2019-02-07T02:42:18.799Z,89.61
2019-02-07T02:43:24.296Z,90.19
2019-02-07T02:44:29.815Z,90.37
2019-02-07T02:45:37.886Z,90.37
2019-02-07T02:46:40.829Z,90.47
2019-02-07T02:47:46.357Z,89.80
2019-02-07T02:48:51.852Z,90.28
2019-02-07T02:49:57.362Z,90.28
2019-02-07T02:51:02.866Z,90.85
2019-02-07T02:52:09.376Z,90.28
2019-02-07T02:53:13.874Z,90.47
2019-02-07T02:54:19.376Z,91.13
2019-02-07T02:55:24.876Z,90.56
2019-02-07T02:56:30.398Z,90.37
2019-02-07T02:57:35.890Z,90.37
2019-02-07T02:58:42.419Z,90.85
2019-02-07T02:59:46.917Z,90.19
2019-02-07T03:00:52.426Z,90.75
2019-02-07T03:01:57.927Z,91.04
2019-02-07T03:03:03.415Z,90.94
2019-02-07T03:04:08.954Z,90.94
2019-02-07T03:05:15.456Z,90.94
2019-02-07T03:06:19.973Z,90.94
2019-02-07T03:07:25.470Z,90.37
2019-02-07T03:08:30.967Z,90.85
2019-02-07T03:09:36.473Z,90.85
2019-02-07T03:10:41.972Z,90.94
2019-02-07T03:11:48.496Z,90.85
2019-02-07T03:12:53.001Z,91.23
2019-02-07T03:13:58.497Z,90.75
2019-02-07T03:15:04.000Z,90.94
2019-02-07T03:16:09.489Z,91.52
2019-02-07T03:17:15.002Z,91.23
2019-02-07T03:18:21.503Z,91.42
2019-02-07T03:19:26.031Z,91.33
2019-02-07T03:20:31.529Z,91.52
2019-02-07T03:21:37.002Z,91.61
2019-02-07T03:22:42.503Z,91.42
2019-02-07T03:23:48.060Z,91.89
2019-02-07T03:24:54.590Z,91.89
2019-02-07T03:25:59.080Z,92.46
2019-02-07T03:27:04.593Z,92.08
2019-02-07T03:28:10.104Z,92.46
2019-02-07T03:29:15.590Z,92.56
2019-02-07T03:30:21.124Z,92.46
2019-02-07T03:31:27.609Z,92.56
2019-02-07T03:32:32.398Z,92.37
2019-02-07T03:33:37.634Z,92.18
2019-02-07T03:34:43.147Z,92.37
2019-02-07T03:35:48.645Z,92.08
2019-02-07T03:36:54.293Z,91.99
2019-02-07T03:38:00.678Z,91.99
2019-02-07T03:39:05.168Z,91.61
2019-02-07T03:40:10.663Z,91.33
2019-02-07T03:41:16.171Z,92.08
2019-02-07T03:42:21.680Z,91.23
2019-02-07T03:43:27.211Z,91.33
2019-02-07T03:44:33.716Z,91.99
2019-02-07T03:45:38.193Z,91.42
2019-02-07T03:46:43.716Z,91.33
2019-02-07T03:47:49.226Z,91.71
2019-02-07T03:48:54.727Z,91.89
2019-02-07T03:50:00.552Z,91.89
2019-02-07T03:51:06.765Z,91.99
2019-02-07T03:52:11.253Z,91.61
2019-02-07T03:53:16.773Z,91.42
2019-02-07T03:54:22.264Z,91.33
2019-02-07T03:55:27.791Z,91.99
2019-02-07T03:56:33.290Z,91.33
2019-02-07T03:57:39.784Z,91.04
2019-02-07T03:58:44.283Z,91.61
2019-02-07T03:59:49.787Z,91.42
2019-02-07T04:00:55.301Z,91.42
2019-02-07T04:02:00.791Z,91.42
2019-02-07T04:03:06.368Z,91.23
2019-02-07T04:04:12.838Z,91.42
2019-02-07T04:05:17.335Z,91.13
2019-02-07T04:06:22.846Z,91.80
2019-02-07T04:07:28.352Z,91.52
2019-02-07T04:08:33.862Z,91.33
2019-02-07T04:09:39.372Z,91.71
2019-02-07T04:10:45.883Z,90.94
2019-02-07T04:11:50.377Z,91.42
2019-02-07T04:12:55.900Z,91.52
2019-02-07T04:14:01.359Z,90.85
2019-02-07T04:15:06.890Z,91.52
2019-02-07T04:16:15.341Z,91.61
2019-02-07T04:17:18.918Z,90.94
2019-02-07T04:18:23.419Z,90.94
2019-02-07T04:19:28.913Z,90.75
2019-02-07T04:20:34.448Z,90.85
2019-02-07T04:21:39.889Z,90.94
2019-02-07T04:22:45.445Z,90.28
2019-02-07T04:23:51.941Z,90.42
2019-02-07T04:24:56.465Z,90.33
2019-02-07T04:26:01.974Z,90.37
2019-02-07T04:27:07.466Z,90.47
2019-02-07T04:28:12.992Z,90.52
2019-02-07T04:29:18.477Z,90.42
2019-02-07T04:30:25.011Z,90.28
2019-02-07T04:31:29.508Z,90.19
2019-02-07T04:32:35.014Z,90.23
2019-02-07T04:33:40.529Z,90.37
2019-02-07T04:34:46.035Z,89.85
2019-02-07T04:35:51.538Z,89.37
2019-02-07T04:36:58.059Z,89.28
2019-02-07T04:38:02.537Z,89.94
2019-02-07T04:39:08.047Z,89.94
2019-02-07T04:40:13.583Z,88.80
2019-02-07T04:41:19.077Z,89.56
2019-02-07T04:42:24.576Z,88.80
2019-02-07T04:43:31.086Z,88.80
2019-02-07T04:44:35.598Z,89.00
2019-02-07T04:45:41.110Z,89.28
2019-02-07T04:46:46.591Z,88.80
2019-02-07T04:47:52.124Z,88.90
2019-02-07T04:48:57.629Z,88.80
2019-02-07T04:50:04.137Z,89.47
2019-02-07T04:51:08.615Z,88.71
2019-02-07T04:52:14.152Z,89.47
2019-02-07T04:53:19.655Z,89.28
2019-02-07T04:54:25.163Z,88.80
2019-02-07T04:55:30.672Z,89.09
2019-02-07T04:56:37.168Z,89.09
2019-02-07T04:57:41.679Z,88.90
2019-02-07T04:58:47.176Z,88.80
2019-02-07T04:59:52.678Z,88.42
2019-02-07T05:00:58.185Z,89.00
2019-02-07T05:02:03.714Z,88.80
2019-02-07T05:03:10.230Z,88.23
2019-02-07T05:04:14.714Z,88.23
2019-02-07T05:05:20.234Z,87.76
2019-02-07T05:06:25.769Z,88.04
2019-02-07T05:07:31.250Z,88.04
2019-02-07T05:08:36.750Z,88.04
2019-02-07T05:09:43.268Z,87.85
2019-02-07T05:10:47.777Z,87.66
2019-02-07T05:11:53.265Z,88.33
2019-02-07T05:12:58.774Z,88.13
2019-02-07T05:14:04.263Z,87.76
2019-02-07T05:15:09.802Z,88.23
2019-02-07T05:16:16.304Z,88.33
2019-02-07T05:17:20.794Z,87.66
2019-02-07T05:18:26.296Z,88.23
2019-02-07T05:19:31.796Z,88.13
2019-02-07T05:20:37.336Z,88.52
2019-02-07T05:21:42.854Z,88.90
2019-02-07T05:22:49.359Z,89.00
2019-02-07T05:23:53.850Z,88.80
2019-02-07T05:24:59.375Z,89.28
2019-02-07T05:26:04.977Z,88.80
2019-02-07T05:27:10.364Z,89.09
2019-02-07T05:28:15.883Z,88.90
2019-02-07T05:29:22.390Z,89.28
2019-02-07T05:30:26.853Z,89.28
2019-02-07T05:31:32.397Z,88.90
2019-02-07T05:32:37.898Z,88.80
2019-02-07T05:33:43.419Z,89.09
2019-02-07T05:34:48.915Z,89.28
2019-02-07T05:35:55.440Z,89.85
2019-02-07T05:36:59.951Z,90.04
2019-02-07T05:38:05.457Z,89.47
2019-02-07T05:39:10.956Z,89.56
2019-02-07T05:40:16.476Z,89.85
2019-02-07T05:41:21.961Z,90.42
2019-02-07T05:42:28.489Z,89.75
2019-02-07T05:43:32.928Z,89.66
2019-02-07T05:44:38.486Z,90.14
2019-02-07T05:45:43.992Z,90.61
2019-02-07T05:46:51.035Z,90.23
2019-02-07T05:47:55.001Z,90.23
2019-02-07T05:49:01.554Z,90.42
2019-02-07T05:50:06.025Z,90.61
2019-02-07T05:51:11.550Z,90.61
2019-02-07T05:52:17.030Z,90.33
2019-02-07T05:53:22.554Z,90.70
2019-02-07T05:54:28.081Z,90.61
2019-02-07T05:55:34.579Z,90.52
2019-02-07T05:56:39.095Z,90.33
2019-02-07T05:57:44.565Z,90.99
2019-02-07T05:58:50.073Z,89.47
2019-02-07T05:59:55.574Z,89.00
2019-02-07T06:01:01.132Z,89.09
2019-02-07T06:02:07.610Z,88.80
2019-02-07T06:03:12.122Z,89.00
2019-02-07T06:04:17.631Z,88.71
2019-02-07T06:05:23.140Z,89.00
2019-02-07T06:06:28.650Z,88.23
2019-02-07T06:07:34.149Z,88.13
2019-02-07T06:08:40.681Z,88.52
2019-02-07T06:09:45.167Z,88.13
2019-02-07T06:10:50.658Z,88.52
2019-02-07T06:11:56.148Z,88.23
2019-02-07T06:13:01.690Z,88.61
2019-02-07T06:14:07.164Z,88.23
2019-02-07T06:15:14.406Z,89.00
2019-02-07T06:16:18.182Z,88.61
2019-02-07T06:17:23.729Z,87.95
2019-02-07T06:18:29.203Z,87.28
2019-02-07T06:19:34.711Z,87.66
2019-02-07T06:20:40.230Z,87.47
2019-02-07T06:21:48.194Z,86.90
2019-02-07T06:22:51.247Z,87.85
2019-02-07T06:23:56.760Z,87.85
2019-02-07T06:25:02.271Z,87.66
2019-02-07T06:26:07.773Z,88.13
2019-02-07T06:27:13.272Z,87.09
2019-02-07T06:28:19.806Z,87.28
2019-02-07T06:29:24.281Z,87.85
2019-02-07T06:30:29.794Z,87.57
2019-02-07T06:31:35.294Z,87.66
2019-02-07T06:32:40.808Z,87.57
2019-02-07T06:33:46.337Z,87.47
2019-02-07T06:34:52.844Z,86.99
2019-02-07T06:35:57.341Z,87.09
2019-02-07T06:37:02.845Z,86.80
2019-02-07T06:38:08.328Z,87.09
2019-02-07T06:39:13.797Z,87.47
2019-02-07T06:40:19.364Z,87.19
2019-02-07T06:41:25.873Z,87.19
2019-02-07T06:42:30.380Z,86.99
2019-02-07T06:43:35.865Z,86.90
2019-02-07T06:44:41.404Z,86.99
2019-02-07T06:45:46.919Z,86.52
2019-02-07T06:46:52.420Z,87.19
2019-02-07T06:47:58.917Z,86.71
2019-02-07T06:49:03.405Z,87.28
2019-02-07T06:50:08.928Z,87.28
2019-02-07T06:51:14.430Z,87.19
2019-02-07T06:52:19.958Z,87.47
2019-02-07T06:53:25.444Z,87.19
2019-02-07T06:54:31.991Z,86.99
2019-02-07T06:55:36.488Z,87.28
2019-02-07T06:56:41.981Z,86.80
2019-02-07T06:57:47.478Z,86.90
2019-02-07T06:58:55.178Z,86.80
2019-02-07T06:59:58.494Z,87.38
2019-02-07T07:01:05.008Z,87.09
2019-02-07T07:02:09.491Z,87.28
2019-02-07T07:03:15.012Z,87.09
2019-02-07T07:04:20.522Z,87.19
2019-02-07T07:05:26.036Z,87.28
2019-02-07T07:06:31.541Z,87.38
2019-02-07T07:07:38.066Z,87.66
2019-02-07T07:08:42.559Z,87.66
2019-02-07T07:09:48.059Z,87.47
2019-02-07T07:10:53.580Z,87.66
2019-02-07T07:11:59.069Z,87.85
2019-02-07T07:13:04.606Z,87.76
2019-02-07T07:14:11.089Z,87.85
2019-02-07T07:15:15.628Z,87.76
2019-02-07T07:16:21.093Z,88.23
2019-02-07T07:17:27.003Z,88.13
2019-02-07T07:18:32.136Z,88.18
2019-02-07T07:19:37.611Z,88.37
2019-02-07T07:20:44.094Z,88.37
2019-02-07T07:21:48.641Z,88.28
2019-02-07T07:22:54.152Z,88.37
2019-02-07T07:23:59.665Z,88.46
2019-02-07T07:25:05.161Z,88.37
2019-02-07T07:26:10.683Z,88.09
2019-02-07T07:27:17.194Z,88.28
2019-02-07T07:28:21.700Z,87.90
2019-02-07T07:29:27.190Z,87.99
2019-02-07T07:30:32.702Z,88.37
2019-02-07T07:31:38.225Z,88.46
2019-02-07T07:32:43.718Z,87.90
2019-02-07T07:33:50.237Z,88.85
2019-02-07T07:34:54.726Z,88.94
2019-02-07T07:36:00.249Z,88.94
2019-02-07T07:37:05.743Z,88.66
2019-02-07T07:38:11.270Z,88.85
2019-02-07T07:39:16.731Z,88.94
2019-02-07T07:40:23.291Z,88.75
2019-02-07T07:41:27.787Z,89.23
2019-02-07T07:42:33.293Z,89.14
2019-02-07T07:43:38.804Z,88.85
2019-02-07T07:44:44.285Z,89.51
2019-02-07T07:45:49.820Z,89.51
2019-02-07T07:46:56.322Z,89.32
2019-02-07T07:48:00.810Z,89.51
2019-02-07T07:49:06.358Z,88.94
2019-02-07T07:50:11.832Z,88.75
2019-02-07T07:51:17.351Z,89.89
2019-02-07T07:52:22.872Z,89.89
2019-02-07T07:53:29.413Z,90.18
2019-02-07T07:54:33.834Z,90.37
2019-02-07T07:55:39.392Z,90.37
2019-02-07T07:56:44.886Z,90.84
2019-02-07T07:57:50.394Z,91.03
2019-02-07T07:58:55.908Z,90.66
2019-02-07T08:00:02.420Z,91.32
2019-02-07T08:01:06.916Z,91.13
2019-02-07T08:02:12.416Z,90.94
2019-02-07T08:03:17.946Z,90.66
2019-02-07T08:04:23.440Z,91.13
2019-02-07T08:05:28.958Z,91.13
2019-02-07T08:06:35.487Z,91.03
2019-02-07T08:07:39.962Z,90.94
2019-02-07T08:08:45.491Z,90.84
2019-02-07T08:09:50.958Z,91.32
2019-02-07T08:10:56.497Z,90.94
2019-02-07T08:12:02.002Z,91.03
2019-02-07T08:13:08.511Z,91.03
2019-02-07T08:14:12.997Z,91.03
2019-02-07T08:15:18.528Z,91.03
2019-02-07T08:16:24.021Z,91.51
2019-02-07T08:17:29.539Z,91.32
2019-02-07T08:18:35.035Z,92.08
2019-02-07T08:19:41.565Z,91.99
2019-02-07T08:20:46.044Z,91.99
2019-02-07T08:21:51.578Z,92.56
2019-02-07T08:22:57.073Z,91.80
2019-02-07T08:24:02.593Z,91.80
2019-02-07T08:25:08.095Z,92.08
2019-02-07T08:26:14.634Z,92.75
2019-02-07T08:27:19.100Z,92.46
2019-02-07T08:28:26.636Z,92.27
2019-02-07T08:29:30.138Z,91.61
2019-02-07T08:30:36.749Z,91.70
2019-02-07T08:31:41.121Z,90.84
2019-02-07T08:32:47.629Z,91.42
2019-02-07T08:33:52.161Z,91.51
2019-02-07T08:34:57.636Z,91.32
2019-02-07T08:36:03.175Z,91.22
2019-02-07T08:37:08.683Z,91.61
2019-02-07T08:38:14.192Z,90.56
2019-02-07T08:39:20.702Z,91.61
2019-02-07T08:40:25.192Z,90.80
2019-02-07T08:41:30.735Z,90.94
2019-02-07T08:42:36.213Z,90.89
2019-02-07T08:43:41.710Z,91.22
2019-02-07T08:44:47.230Z,90.61
2019-02-07T08:45:53.759Z,91.08
2019-02-07T08:46:58.238Z,90.66
2019-02-07T08:48:04.080Z,90.89
2019-02-07T08:49:09.268Z,90.22
2019-02-07T08:50:14.808Z,90.89
2019-02-07T08:51:20.286Z,90.89
2019-02-07T08:52:26.810Z,90.61
2019-02-07T08:53:31.282Z,90.80
2019-02-07T08:54:36.834Z,90.80
2019-02-07T08:55:42.322Z,90.80
2019-02-07T08:56:47.795Z,90.42
2019-02-07T08:57:53.341Z,90.32
2019-02-07T08:58:59.840Z,90.42
2019-02-07T09:00:04.314Z,90.51
2019-02-07T09:01:11.443Z,90.80
2019-02-07T09:02:15.373Z,90.70
2019-02-07T09:03:20.865Z,90.70
2019-02-07T09:04:26.368Z,90.22
2019-02-07T09:05:32.883Z,90.42
2019-02-07T09:06:37.399Z,90.61
2019-02-07T09:07:42.875Z,90.61
2019-02-07T09:08:48.405Z,90.61
2019-02-07T09:09:53.910Z,90.61
2019-02-07T09:10:59.442Z,90.51
2019-02-07T09:12:05.926Z,90.80
2019-02-07T09:13:10.446Z,90.99
2019-02-07T09:14:15.938Z,90.99
2019-02-07T09:15:21.427Z,91.46
2019-02-07T09:16:26.935Z,90.22
2019-02-07T09:17:32.484Z,90.99
2019-02-07T09:18:38.977Z,91.27
2019-02-07T09:19:43.496Z,91.17
2019-02-07T09:20:48.993Z,91.08
2019-02-07T09:21:54.507Z,91.08
2019-02-07T09:23:00.012Z,91.08
2019-02-07T09:24:05.536Z,91.08
2019-02-07T09:25:11.988Z,90.51
2019-02-07T09:26:16.564Z,91.13
2019-02-07T09:27:22.040Z,90.94
2019-02-07T09:28:27.553Z,90.89
2019-02-07T09:29:33.094Z,91.17
2019-02-07T09:30:38.576Z,91.03
2019-02-07T09:31:45.083Z,90.89
2019-02-07T09:32:49.586Z,91.51
2019-02-07T09:33:55.085Z,91.65
2019-02-07T09:35:00.554Z,90.80
2019-02-07T09:36:06.118Z,90.89
2019-02-07T09:37:11.619Z,91.17
2019-02-07T09:38:18.111Z,91.17
2019-02-07T09:39:22.604Z,91.17
2019-02-07T09:40:28.141Z,91.37
2019-02-07T09:41:33.637Z,90.89
2019-02-07T09:42:39.123Z,91.08
2019-02-07T09:43:44.646Z,91.08
2019-02-07T09:44:51.155Z,90.70
2019-02-07T09:45:55.679Z,90.61
2019-02-07T09:47:01.278Z,90.89
2019-02-07T09:48:06.657Z,90.70
2019-02-07T09:49:12.181Z,90.80
2019-02-07T09:50:17.706Z,90.89
2019-02-07T09:51:24.258Z,90.51
2019-02-07T09:52:28.730Z,90.56
2019-02-07T09:53:34.241Z,89.75
2019-02-07T09:54:39.754Z,89.75
2019-02-07T09:55:45.233Z,89.89
2019-02-07T09:56:50.752Z,88.93
2019-02-07T09:57:57.267Z,89.22
2019-02-07T09:59:03.428Z,88.93
2019-02-07T10:00:07.298Z,89.70
2019-02-07T10:01:12.754Z,89.13
2019-02-07T10:02:18.295Z,88.84
2019-02-07T10:03:23.804Z,89.03
2019-02-07T10:04:30.319Z,89.70
2019-02-07T10:05:34.837Z,89.03
2019-02-07T10:06:40.311Z,88.37
2019-02-07T10:07:45.846Z,88.37
2019-02-07T10:08:51.338Z,88.65
2019-02-07T10:09:56.841Z,88.12
2019-02-07T10:11:03.402Z,87.84
2019-02-07T10:12:07.842Z,88.37
2019-02-07T10:13:13.384Z,87.93
2019-02-07T10:14:18.891Z,88.22
2019-02-07T10:15:24.424Z,88.03
2019-02-07T10:16:29.892Z,87.65
2019-02-07T10:17:36.450Z,87.55
2019-02-07T10:18:40.930Z,87.07
2019-02-07T10:19:46.427Z,87.46
2019-02-07T10:20:51.985Z,87.07
2019-02-07T10:21:57.423Z,87.17
2019-02-07T10:23:02.928Z,87.46
2019-02-07T10:24:09.506Z,86.41
2019-02-07T10:25:13.992Z,86.51
2019-02-07T10:26:19.500Z,86.79
2019-02-07T10:27:25.005Z,86.60
2019-02-07T10:28:30.470Z,86.69
2019-02-07T10:29:36.035Z,86.60
2019-02-07T10:30:42.531Z,86.93
2019-02-07T10:31:47.039Z,86.74
2019-02-07T10:32:52.552Z,86.93
2019-02-07T10:33:58.059Z,86.55
2019-02-07T10:35:03.564Z,85.69
2019-02-07T10:36:09.077Z,86.07
2019-02-07T10:37:15.577Z,85.69
2019-02-07T10:38:20.107Z,85.97
2019-02-07T10:39:25.604Z,85.12
2019-02-07T10:40:31.106Z,84.92
2019-02-07T10:41:36.616Z,84.07
2019-02-07T10:42:42.145Z,84.55
2019-02-07T10:43:48.673Z,84.69
2019-02-07T10:44:53.145Z,84.26
2019-02-07T10:45:58.657Z,82.87
2019-02-07T10:47:04.180Z,83.44
2019-02-07T10:48:09.705Z,83.40
2019-02-07T10:49:15.185Z,82.20
2019-02-07T10:50:21.715Z,83.16
2019-02-07T10:51:26.235Z,83.25
2019-02-07T10:52:31.732Z,82.40
2019-02-07T10:53:37.239Z,82.30
2019-02-07T10:54:42.751Z,81.82
2019-02-07T10:55:48.269Z,82.49
2019-02-07T10:56:54.781Z,81.35
2019-02-07T10:57:59.281Z,81.25
2019-02-07T10:59:04.767Z,80.11
2019-02-07T11:00:10.324Z,80.49
2019-02-07T11:01:15.808Z,81.25
2019-02-07T11:02:21.315Z,81.35
2019-02-07T11:03:27.830Z,81.29
2019-02-07T11:04:32.340Z,79.91
2019-02-07T11:05:37.840Z,79.44
2019-02-07T11:06:43.344Z,78.96
2019-02-07T11:07:48.870Z,78.39
2019-02-07T11:08:54.388Z,77.44
2019-02-07T11:10:00.895Z,77.15
2019-02-07T11:11:05.405Z,76.39
2019-02-07T11:12:10.893Z,76.86
2019-02-07T11:13:16.392Z,75.91
2019-02-07T11:14:21.916Z,76.62
2019-02-07T11:15:27.416Z,77.00
2019-02-07T11:16:33.933Z,76.42
2019-02-07T11:17:38.441Z,76.52
2019-02-07T11:18:54.081Z,77.00
2019-02-07T11:19:49.473Z,77.00
2019-02-07T11:20:54.974Z,75.76
2019-02-07T11:22:00.502Z,75.09
2019-02-07T11:23:07.014Z,74.32
2019-02-07T11:24:11.513Z,73.47
2019-02-07T11:25:17.013Z,73.56
2019-02-07T11:26:22.521Z,74.61
2019-02-07T11:27:28.030Z,74.90
2019-02-07T11:28:33.554Z,75.47
2019-02-07T11:29:40.055Z,75.09
2019-02-07T11:30:44.573Z,74.52
2019-02-07T11:31:50.182Z,73.37
2019-02-07T11:32:55.588Z,74.32
2019-02-07T11:34:01.093Z,74.61
2019-02-07T11:35:06.631Z,74.04
2019-02-07T11:36:13.114Z,74.71
2019-02-07T11:37:17.619Z,73.66
2019-02-07T11:38:23.140Z,73.18
2019-02-07T11:39:29.765Z,73.75
2019-02-07T11:40:34.187Z,73.18
2019-02-07T11:41:39.688Z,74.13
2019-02-07T11:42:46.193Z,74.42
2019-02-07T11:43:50.693Z,72.80
2019-02-07T11:44:56.189Z,71.56
2019-02-07T11:46:01.719Z,72.23
2019-02-07T11:47:07.213Z,73.18
2019-02-07T11:48:12.763Z,71.75
2019-02-07T11:49:19.252Z,72.13
2019-02-07T11:50:23.749Z,72.89
2019-02-07T11:51:29.259Z,71.46
2019-02-07T11:52:34.776Z,71.27
2019-02-07T11:53:40.296Z,70.51
2019-02-07T11:54:45.872Z,71.27
2019-02-07T11:55:52.346Z,71.18
2019-02-07T11:56:56.820Z,70.22
2019-02-07T11:58:02.310Z,70.70
2019-02-07T11:59:07.858Z,71.94
2019-02-07T12:00:13.333Z,72.42
2019-02-07T12:01:18.865Z,72.89
2019-02-07T12:02:25.384Z,72.03
2019-02-07T12:03:29.869Z,72.83
2019-02-07T12:04:35.382Z,72.17
2019-02-07T12:05:40.903Z,70.26
2019-02-07T12:06:46.417Z,69.31
2019-02-07T12:07:51.939Z,69.59
2019-02-07T12:08:58.435Z,70.16
2019-02-07T12:10:02.926Z,69.37
2019-02-07T12:11:08.445Z,69.08
2019-02-07T12:12:13.955Z,69.97
2019-02-07T12:13:19.452Z,70.45
2019-02-07T12:14:24.978Z,70.36
2019-02-07T12:15:31.491Z,70.16
2019-02-07T12:16:35.984Z,70.07
2019-02-07T12:17:41.463Z,69.68
2019-02-07T12:18:47.004Z,69.78
2019-02-07T12:19:52.550Z,69.87
2019-02-07T12:20:58.031Z,70.26
2019-02-07T12:22:04.553Z,70.07
2019-02-07T12:23:09.057Z,69.02
2019-02-07T12:24:14.570Z,69.21
2019-02-07T12:25:20.069Z,69.02
2019-02-07T12:26:25.594Z,68.35
2019-02-07T12:27:31.101Z,69.40
2019-02-07T12:28:37.618Z,68.22
2019-02-07T12:29:42.113Z,68.70
2019-02-07T12:30:47.652Z,69.27
2019-02-07T12:31:53.151Z,68.98
2019-02-07T12:32:58.641Z,69.27
2019-02-07T12:34:04.166Z,68.88
2019-02-07T12:35:10.678Z,68.60
2019-02-07T12:36:15.219Z,67.83
2019-02-07T12:37:20.730Z,68.70
2019-02-07T12:38:26.204Z,69.56
2019-02-07T12:39:31.724Z,69.21
2019-02-07T12:40:37.241Z,69.21
2019-02-07T12:41:43.764Z,69.21
2019-02-07T12:42:48.242Z,68.44
2019-02-07T12:43:53.750Z,68.57
2019-02-07T12:44:59.265Z,67.43
2019-02-07T12:46:04.799Z,66.66
2019-02-07T12:47:10.281Z,66.47
2019-02-07T12:48:16.816Z,66.38
2019-02-07T12:49:28.883Z,66.38
2019-02-07T12:50:26.825Z,67.33
2019-02-07T12:51:32.332Z,67.71
2019-02-07T12:52:37.870Z,65.93
2019-02-07T12:53:43.360Z,66.31
2019-02-07T12:54:49.883Z,64.88
2019-02-07T12:55:54.387Z,63.64
2019-02-07T12:56:59.911Z,63.19
2019-02-07T12:58:05.392Z,62.94
2019-02-07T12:59:10.893Z,62.71
2019-02-07T13:00:16.412Z,60.28
2019-02-07T13:01:22.950Z,59.45
2019-02-07T13:02:27.448Z,57.56
2019-02-07T13:03:32.952Z,54.52
2019-02-07T13:04:38.447Z,54.49
2019-02-07T13:05:43.980Z,55.80
2019-02-07T13:06:49.459Z,54.68
2019-02-07T13:07:56.016Z,55.13
2019-02-07T13:09:00.526Z,56.02
2019-02-07T13:10:06.026Z,55.13
2019-02-07T13:11:11.542Z,54.58
2019-02-07T13:12:17.085Z,53.79
2019-02-07T13:13:22.615Z,54.37
2019-02-07T13:14:29.100Z,55.33
2019-02-07T13:15:33.633Z,55.97
2019-02-07T13:16:39.143Z,55.85
2019-02-07T13:17:44.619Z,56.81
2019-02-07T13:18:50.155Z,57.54
2019-02-07T13:19:55.645Z,58.79
2019-02-07T13:21:02.191Z,58.98
2019-02-07T13:22:06.706Z,58.91
2019-02-07T13:23:12.202Z,58.50
2019-02-07T13:24:17.706Z,58.28
2019-02-07T13:25:23.237Z,58.56
2019-02-07T13:26:28.755Z,58.25
2019-02-07T13:27:35.241Z,59.01
2019-02-07T13:28:39.764Z,59.97
2019-02-07T13:29:45.275Z,58.95
2019-02-07T13:30:50.842Z,57.54
2019-02-07T13:31:56.289Z,58.72
2019-02-07T13:33:01.872Z,58.56
2019-02-07T13:34:08.333Z,58.44
2019-02-07T13:35:12.864Z,56.87
2019-02-07T13:36:18.379Z,57.73
2019-02-07T13:37:23.876Z,58.31
2019-02-07T13:38:29.330Z,58.28
2019-02-07T13:39:37.437Z,59.14
2019-02-07T13:40:41.409Z,59.33
2019-02-07T13:41:45.897Z,59.27
2019-02-07T13:42:51.419Z,58.08
2019-02-07T13:43:56.918Z,56.98
2019-02-07T13:45:02.452Z,55.22
2019-02-07T13:46:07.956Z,53.42
2019-02-07T13:47:14.442Z,52.87
2019-02-07T13:48:18.969Z,51.38
2019-02-07T13:49:24.497Z,48.85
2019-02-07T13:50:32.535Z,49.00
2019-02-07T13:51:35.539Z,50.42
2019-02-07T13:52:41.050Z,50.27
2019-02-07T13:53:47.572Z,51.49
2019-02-07T13:54:52.064Z,53.12
2019-02-07T13:55:57.573Z,53.77
2019-02-07T13:57:03.088Z,54.44
2019-02-07T13:58:08.591Z,54.50
2019-02-07T13:59:14.101Z,54.70
2019-02-07T14:00:23.296Z,55.44
2019-02-07T14:01:25.134Z,55.73
2019-02-07T14:02:30.683Z,55.73
2019-02-07T14:03:36.171Z,55.44